createdAt,value
2018-07-24T00:01:12.789Z,18.60
2018-07-24T00:03:44.360Z,18.60
2018-07-24T00:06:14.914Z,18.50
2018-07-24T00:08:45.791Z,18.50
2018-07-24T00:11:16.933Z,18.50
2018-07-24T00:13:47.641Z,18.40
2018-07-24T00:16:18.594Z,18.40
2018-07-24T00:21:19.228Z,18.30
2018-07-24T00:23:50.364Z,18.20
2018-07-24T00:26:20.893Z,18.20
2018-07-24T00:28:51.785Z,18.10
2018-07-24T00:31:22.817Z,18.10
2018-07-24T00:33:53.372Z,18.10
2018-07-24T00:36:24.205Z,18.10
2018-07-24T00:38:55.244Z,18.10
2018-07-24T00:41:25.817Z,18.10
2018-07-24T00:43:56.507Z,18.00
2018-07-24T00:46:27.056Z,18.00
2018-07-24T00:48:57.753Z,18.00
2018-07-24T00:51:28.789Z,18.00
2018-07-24T00:53:59.628Z,18.00
2018-07-24T00:56:30.445Z,17.90
2018-07-24T00:59:01.369Z,17.90
2018-07-24T01:01:31.892Z,17.90
2018-07-24T01:04:02.829Z,17.90
2018-07-24T01:06:33.773Z,17.90
2018-07-24T01:09:04.859Z,17.90
2018-07-24T01:11:35.928Z,17.90
2018-07-24T01:14:06.764Z,17.80
2018-07-24T01:16:37.348Z,17.80
2018-07-24T01:19:08.759Z,17.70
2018-07-24T01:21:39.265Z,17.60
2018-07-24T01:24:10.089Z,17.60
2018-07-24T01:26:41.148Z,17.50
2018-07-24T01:29:11.710Z,17.40
2018-07-24T01:31:42.222Z,17.30
2018-07-24T01:34:13.385Z,17.30
2018-07-24T01:36:44.733Z,17.30
2018-07-24T01:39:15.413Z,17.30
2018-07-24T01:41:45.981Z,17.30
2018-07-24T01:44:16.521Z,17.20
2018-07-24T01:46:47.102Z,17.30
2018-07-24T01:49:18.352Z,17.30
2018-07-24T01:51:48.934Z,17.20
2018-07-24T01:54:19.790Z,17.20
2018-07-24T01:56:50.850Z,17.20
2018-07-24T01:59:22.417Z,17.20
2018-07-24T02:01:53.116Z,17.20
2018-07-24T02:04:24.590Z,17.20
2018-07-24T02:06:55.282Z,17.20
2018-07-24T02:09:26.142Z,17.20
2018-07-24T02:11:57.362Z,17.10
2018-07-24T02:14:28.104Z,17.10
2018-07-24T02:16:58.701Z,17.00
2018-07-24T02:22:00.190Z,16.90
2018-07-24T02:24:31.482Z,16.90
2018-07-24T02:27:02.801Z,16.90
2018-07-24T02:29:33.706Z,16.90
2018-07-24T02:32:04.358Z,16.90
2018-07-24T02:34:35.849Z,16.90
2018-07-24T02:37:06.745Z,16.90
2018-07-24T02:39:38.030Z,16.90
2018-07-24T02:42:09.213Z,16.90
2018-07-24T02:44:40.394Z,16.90
2018-07-24T02:47:11.210Z,16.90
2018-07-24T02:49:42.617Z,16.90
2018-07-24T02:52:13.317Z,16.90
2018-07-24T02:54:44.481Z,16.80
2018-07-24T02:57:15.494Z,16.80
2018-07-24T02:59:46.194Z,16.80
2018-07-24T03:02:16.768Z,16.80
2018-07-24T03:04:47.547Z,16.90
2018-07-24T03:07:18.501Z,16.80
2018-07-24T03:09:49.050Z,16.80
2018-07-24T03:12:19.624Z,16.80
2018-07-24T03:14:50.533Z,16.80
2018-07-24T03:17:21.570Z,16.80
2018-07-24T03:19:52.266Z,16.80
2018-07-24T03:22:22.808Z,16.80
2018-07-24T03:24:53.781Z,16.80
2018-07-24T03:27:24.314Z,16.80
2018-07-24T03:29:54.901Z,16.80
2018-07-24T03:32:25.673Z,16.70
2018-07-24T03:34:57.230Z,16.70
2018-07-24T03:37:27.797Z,16.70
2018-07-24T03:39:58.666Z,16.80
2018-07-24T03:42:31.294Z,16.80
2018-07-24T03:45:02.147Z,16.80
2018-07-24T03:50:03.446Z,16.80
2018-07-24T03:52:34.510Z,16.80
2018-07-24T03:55:05.518Z,16.90
2018-07-24T03:57:36.364Z,16.90
2018-07-24T04:00:07.907Z,16.90
2018-07-24T04:02:38.766Z,17.00
2018-07-24T04:05:09.759Z,17.00
2018-07-24T04:07:40.497Z,17.10
2018-07-24T04:10:11.513Z,17.20
2018-07-24T04:12:42.110Z,17.30
2018-07-24T04:15:12.639Z,17.40
2018-07-24T04:17:43.303Z,17.50
2018-07-24T04:20:14.105Z,17.60
2018-07-24T04:22:45.067Z,17.70
2018-07-24T04:25:15.721Z,17.80
2018-07-24T04:27:46.355Z,17.90
2018-07-24T04:32:47.702Z,18.00
2018-07-24T04:35:18.318Z,18.10
2018-07-24T04:37:48.929Z,18.20
2018-07-24T04:40:20.174Z,18.30
2018-07-24T04:42:50.846Z,18.40
2018-07-24T04:45:21.897Z,18.50
2018-07-24T04:47:52.477Z,18.60
2018-07-24T04:50:23.446Z,18.70
2018-07-24T04:52:54.076Z,18.80
2018-07-24T04:55:24.798Z,18.90
2018-07-24T04:57:56.349Z,19.00
2018-07-24T05:00:27.013Z,19.10
2018-07-24T05:02:57.553Z,19.20
2018-07-24T05:05:28.284Z,19.30
2018-07-24T05:07:59.365Z,19.50
2018-07-24T05:10:31.895Z,19.60
2018-07-24T05:13:02.493Z,19.70
2018-07-24T05:15:33.338Z,19.70
2018-07-24T05:18:03.997Z,19.90
2018-07-24T05:20:34.666Z,20.00
2018-07-24T05:23:05.623Z,20.10
2018-07-24T05:25:36.897Z,20.10
2018-07-24T05:28:07.486Z,20.30
2018-07-24T05:33:08.695Z,20.40
2018-07-24T05:35:40.063Z,20.50
2018-07-24T05:38:12.276Z,20.60
2018-07-24T05:40:43.296Z,20.70
2018-07-24T05:43:17.188Z,20.80
2018-07-24T05:45:48.016Z,21.00
2018-07-24T05:48:19.215Z,21.20
2018-07-24T05:50:51.266Z,21.40
2018-07-24T05:53:22.180Z,21.50
2018-07-24T05:55:54.329Z,21.70
2018-07-24T05:58:24.922Z,21.90
2018-07-24T06:00:56.002Z,22.00
2018-07-24T06:03:26.606Z,22.10
2018-07-24T06:05:57.625Z,22.30
2018-07-24T06:08:28.450Z,22.40
2018-07-24T06:10:59.021Z,22.50
2018-07-24T06:13:29.946Z,22.60
2018-07-24T06:16:02.144Z,22.70
2018-07-24T06:18:34.418Z,22.80
2018-07-24T06:21:06.826Z,22.90
2018-07-24T06:23:38.177Z,23.00
2018-07-24T06:26:09.014Z,23.20
2018-07-24T06:28:40.722Z,23.20
2018-07-24T06:31:11.396Z,23.30
2018-07-24T06:33:42.313Z,23.50
2018-07-24T06:36:12.869Z,23.60
2018-07-24T06:38:43.754Z,23.70
2018-07-24T06:41:17.401Z,23.80
2018-07-24T06:43:48.590Z,24.00
2018-07-24T06:46:19.882Z,24.10
2018-07-24T06:48:50.648Z,24.30
2018-07-24T06:51:21.344Z,24.50
2018-07-24T06:53:59.576Z,24.70
2018-07-24T06:59:02.555Z,24.80
2018-07-24T07:01:34.645Z,24.90
2018-07-24T07:04:05.181Z,25.10
2018-07-24T07:06:36.369Z,25.30
2018-07-24T07:09:09.078Z,25.30
2018-07-24T07:11:39.937Z,25.30
2018-07-24T07:14:10.521Z,25.30
2018-07-24T07:16:41.106Z,25.30
2018-07-24T07:19:11.721Z,25.30
2018-07-24T07:21:42.254Z,25.40
2018-07-24T07:24:13.213Z,25.40
2018-07-24T07:26:43.881Z,25.50
2018-07-24T07:29:14.548Z,25.50
2018-07-24T07:31:45.768Z,25.70
2018-07-24T07:34:16.305Z,25.80
2018-07-24T07:36:46.936Z,25.90
2018-07-24T07:39:17.874Z,25.80
2018-07-24T07:41:59.373Z,25.80
2018-07-24T07:44:30.236Z,25.90
2018-07-24T07:47:01.591Z,26.10
2018-07-24T07:49:32.397Z,25.90
2018-07-24T07:52:03.857Z,26.00
2018-07-24T07:54:34.617Z,25.90
2018-07-24T07:57:05.256Z,26.10
2018-07-24T07:59:36.278Z,26.30
2018-07-24T08:02:07.287Z,26.50
2018-07-24T08:04:37.875Z,26.60
2018-07-24T08:07:08.401Z,26.60
2018-07-24T08:09:38.934Z,26.50
2018-07-24T08:12:11.506Z,26.40
2018-07-24T08:14:42.117Z,26.30
2018-07-24T08:17:13.057Z,26.20
2018-07-24T08:19:43.993Z,26.50
2018-07-24T08:22:14.797Z,26.60
2018-07-24T08:24:46.329Z,26.90
2018-07-24T08:27:18.374Z,26.90
2018-07-24T08:29:49.081Z,27.10
2018-07-24T08:32:19.805Z,27.10
2018-07-24T08:34:50.389Z,27.20
2018-07-24T08:37:22.310Z,27.20
2018-07-24T08:39:52.875Z,27.30
2018-07-24T08:42:23.440Z,27.30
2018-07-24T08:44:54.407Z,27.20
2018-07-24T08:47:25.134Z,27.10
2018-07-24T08:49:55.715Z,27.20
2018-07-24T08:52:27.105Z,27.10
2018-07-24T08:54:58.427Z,27.20
2018-07-24T08:57:28.913Z,27.20
2018-07-24T08:59:59.921Z,27.20
2018-07-24T09:02:30.597Z,27.20
2018-07-24T09:05:01.136Z,27.40
2018-07-24T09:07:32.141Z,27.60
2018-07-24T09:10:02.667Z,27.60
2018-07-24T09:12:33.295Z,27.60
2018-07-24T09:15:04.910Z,27.50
2018-07-24T09:17:35.685Z,27.60
2018-07-24T09:20:06.319Z,27.60
2018-07-24T09:22:37.721Z,27.80
2018-07-24T09:25:08.393Z,28.00
2018-07-24T09:27:38.955Z,28.10
2018-07-24T09:30:09.993Z,28.10
2018-07-24T09:32:40.889Z,28.20
2018-07-24T09:35:11.934Z,28.10
2018-07-24T09:37:43.516Z,28.10
2018-07-24T09:40:14.130Z,28.10
2018-07-24T09:42:45.168Z,28.00
2018-07-24T09:45:16.313Z,28.20
2018-07-24T09:47:46.870Z,28.40
2018-07-24T09:50:17.409Z,28.40
2018-07-24T09:52:48.975Z,28.50
2018-07-24T09:55:19.973Z,28.50
2018-07-24T09:57:51.033Z,28.50
2018-07-24T10:00:26.470Z,28.50
2018-07-24T10:02:57.513Z,28.80
2018-07-24T10:05:28.479Z,29.00
2018-07-24T10:07:59.103Z,29.20
2018-07-24T10:10:29.662Z,29.30
2018-07-24T10:13:00.978Z,29.30
2018-07-24T10:15:32.074Z,29.00
2018-07-24T10:18:02.614Z,29.20
2018-07-24T10:20:33.364Z,29.20
2018-07-24T10:23:04.160Z,29.50
2018-07-24T10:25:34.741Z,29.70
2018-07-24T10:28:05.657Z,29.80
2018-07-24T10:30:36.189Z,29.80
2018-07-24T10:33:07.583Z,29.70
2018-07-24T10:35:40.153Z,29.80
2018-07-24T10:40:41.675Z,30.00
2018-07-24T10:43:13.126Z,29.80
2018-07-24T10:45:43.665Z,30.20
2018-07-24T10:48:14.228Z,30.60
2018-07-24T10:50:44.801Z,31.00
2018-07-24T10:53:15.382Z,31.10
2018-07-24T10:55:46.390Z,30.90
2018-07-24T10:58:17.257Z,31.10
2018-07-24T11:00:47.868Z,31.40
2018-07-24T11:03:18.473Z,31.20
2018-07-24T11:05:49.035Z,31.20
2018-07-24T11:08:20.221Z,31.50
2018-07-24T11:10:50.840Z,31.90
2018-07-24T11:13:21.902Z,32.20
2018-07-24T11:15:52.777Z,32.50
2018-07-24T11:18:24.356Z,32.70
2018-07-24T11:20:55.753Z,32.20
2018-07-24T11:23:26.822Z,31.80
2018-07-24T11:25:57.354Z,32.00
2018-07-24T11:28:28.200Z,32.00
2018-07-24T11:30:59.928Z,32.20
2018-07-24T11:33:31.529Z,32.30
2018-07-24T11:36:02.198Z,32.30
2018-07-24T11:38:33.097Z,32.50
2018-07-24T11:41:05.678Z,32.70
2018-07-24T11:43:36.823Z,33.10
2018-07-24T11:46:07.751Z,33.30
2018-07-24T11:48:38.972Z,34.20
2018-07-24T11:51:12.790Z,34.80
2018-07-24T11:53:43.883Z,34.00
2018-07-24T11:56:14.509Z,34.30
2018-07-24T11:58:48.506Z,34.20
2018-07-24T12:01:19.110Z,34.20
2018-07-24T12:03:49.893Z,34.60
2018-07-24T12:06:20.451Z,35.30
2018-07-24T12:08:51.059Z,35.80
2018-07-24T12:11:21.930Z,36.30
2018-07-24T12:13:52.621Z,37.20
2018-07-24T12:16:24.341Z,38.20
2018-07-24T12:18:55.933Z,38.40
2018-07-24T12:21:26.490Z,38.20
2018-07-24T12:23:57.353Z,39.00
2018-07-24T12:26:28.005Z,38.10
2018-07-24T12:28:59.050Z,38.10
2018-07-24T12:31:29.597Z,37.70
2018-07-24T12:34:01.626Z,36.90
2018-07-24T12:36:32.640Z,36.70
2018-07-24T12:39:08.570Z,37.20
2018-07-24T12:41:39.249Z,37.80
2018-07-24T12:44:09.784Z,38.70
2018-07-24T12:46:40.317Z,39.50
2018-07-24T12:49:11.443Z,40.10
2018-07-24T12:51:42.105Z,39.70
2018-07-24T12:54:12.666Z,39.80
2018-07-24T12:56:43.454Z,40.30
2018-07-24T12:59:14.373Z,40.10
2018-07-24T13:01:45.315Z,40.70
2018-07-24T13:04:16.270Z,41.30
2018-07-24T13:06:46.865Z,40.70
2018-07-24T13:09:17.863Z,40.50
2018-07-24T13:11:59.690Z,40.00
2018-07-24T13:14:32.165Z,40.40
2018-07-24T13:17:02.853Z,40.30
2018-07-24T13:19:33.447Z,40.70
2018-07-24T13:22:04.112Z,41.30
2018-07-24T13:24:34.731Z,40.60
2018-07-24T13:27:05.773Z,40.30
2018-07-24T13:29:36.420Z,40.40
2018-07-24T13:32:07.421Z,40.90
2018-07-24T13:34:38.709Z,40.80
2018-07-24T13:37:09.225Z,41.30
2018-07-24T13:39:39.780Z,41.80
2018-07-24T13:42:10.314Z,42.80
2018-07-24T13:44:41.090Z,41.80
2018-07-24T13:47:12.092Z,41.60
2018-07-24T13:49:42.929Z,39.90
2018-07-24T13:52:13.477Z,40.50
2018-07-24T13:57:14.686Z,40.70
2018-07-24T13:59:49.399Z,42.10
2018-07-24T14:02:20.934Z,43.90
2018-07-24T14:04:52.145Z,44.60
2018-07-24T14:07:22.697Z,43.50
2018-07-24T14:09:53.578Z,42.60
2018-07-24T14:12:24.114Z,41.90
2018-07-24T14:14:54.843Z,42.10
2018-07-24T14:17:25.930Z,42.10
2018-07-24T14:19:56.588Z,41.80
2018-07-24T14:22:28.894Z,41.80
2018-07-24T14:24:59.940Z,43.00
2018-07-24T14:27:30.523Z,44.80
2018-07-24T14:30:01.160Z,45.50
2018-07-24T14:32:32.222Z,45.50
2018-07-24T14:35:03.049Z,44.10
2018-07-24T14:37:33.594Z,42.20
2018-07-24T14:40:04.617Z,41.20
2018-07-24T14:42:36.302Z,40.70
2018-07-24T14:45:07.986Z,41.10
2018-07-24T14:47:38.530Z,42.80
2018-07-24T14:50:09.195Z,43.00
2018-07-24T14:52:40.163Z,42.70
2018-07-24T14:55:10.745Z,43.20
2018-07-24T14:57:41.306Z,44.50
2018-07-24T15:00:12.033Z,44.90
2018-07-24T15:02:42.902Z,46.20
2018-07-24T15:05:13.501Z,45.70
2018-07-24T15:07:44.066Z,45.00
2018-07-24T15:10:15.297Z,44.00
2018-07-24T15:12:45.859Z,43.70
2018-07-24T15:15:16.577Z,43.30
2018-07-24T15:17:47.635Z,42.90
2018-07-24T15:20:18.653Z,43.80
2018-07-24T15:22:49.273Z,44.40
2018-07-24T15:25:20.140Z,44.00
2018-07-24T15:27:50.738Z,43.80
2018-07-24T15:30:21.377Z,43.80
2018-07-24T15:32:52.280Z,44.60
2018-07-24T15:35:22.821Z,44.70
2018-07-24T15:37:53.389Z,46.40
2018-07-24T15:40:24.714Z,46.90
2018-07-24T15:42:55.496Z,45.80
2018-07-24T15:45:26.050Z,44.90
2018-07-24T15:47:57.021Z,45.80
2018-07-24T15:50:27.821Z,43.40
2018-07-24T15:52:59.025Z,43.40
2018-07-24T15:55:31.338Z,43.70
2018-07-24T15:58:01.916Z,43.40
2018-07-24T16:00:32.661Z,44.10
2018-07-24T16:03:03.622Z,44.50
2018-07-24T16:05:34.608Z,43.90
2018-07-24T16:08:05.398Z,43.50
2018-07-24T16:10:36.470Z,42.60
2018-07-24T16:13:07.054Z,43.10
2018-07-24T16:15:37.768Z,44.80
2018-07-24T16:18:08.712Z,43.80
2018-07-24T16:20:39.338Z,44.10
2018-07-24T16:23:09.935Z,44.10
2018-07-24T16:25:42.286Z,44.40
2018-07-24T16:28:13.092Z,44.70
2018-07-24T16:30:44.105Z,44.80
2018-07-24T16:33:14.949Z,45.20
2018-07-24T16:35:45.741Z,45.70
2018-07-24T16:38:16.475Z,45.60
2018-07-24T16:40:47.145Z,45.80
2018-07-24T16:43:17.749Z,44.50
2018-07-24T16:45:48.525Z,44.30
2018-07-24T16:48:19.862Z,43.10
2018-07-24T16:50:50.894Z,42.90
2018-07-24T16:53:21.591Z,43.40
2018-07-24T16:55:52.473Z,43.50
2018-07-24T16:58:23.026Z,43.40
2018-07-24T17:00:54.126Z,43.10
2018-07-24T17:03:24.678Z,43.20
2018-07-24T17:05:55.422Z,43.40
2018-07-24T17:08:26.495Z,42.40
2018-07-24T17:10:57.337Z,41.90
2018-07-24T17:13:27.922Z,42.30
2018-07-24T17:15:58.477Z,42.10
2018-07-24T17:18:29.505Z,43.40
2018-07-24T17:21:00.042Z,43.90
2018-07-24T17:23:30.595Z,44.70
2018-07-24T17:26:01.837Z,45.10
2018-07-24T17:28:32.394Z,45.10
2018-07-24T17:31:03.175Z,44.40
2018-07-24T17:33:34.125Z,44.20
2018-07-24T17:36:05.052Z,43.80
2018-07-24T17:38:35.587Z,43.10
2018-07-24T17:41:07.274Z,42.70
2018-07-24T17:43:37.870Z,43.40
2018-07-24T17:46:08.618Z,43.10
2018-07-24T17:48:39.168Z,41.30
2018-07-24T17:51:10.785Z,40.70
2018-07-24T17:53:41.665Z,40.40
2018-07-24T17:56:12.622Z,40.60
2018-07-24T17:58:43.177Z,40.00
2018-07-24T18:01:14.151Z,39.60
2018-07-24T18:03:44.727Z,39.60
2018-07-24T18:06:15.456Z,39.50
2018-07-24T18:08:46.042Z,39.40
2018-07-24T18:11:17.447Z,39.30
2018-07-24T18:13:48.022Z,39.10
2018-07-24T18:16:18.599Z,39.10
2018-07-24T18:18:49.514Z,38.90
2018-07-24T18:21:20.098Z,38.80
2018-07-24T18:23:50.682Z,38.60
2018-07-24T18:26:21.390Z,38.60
2018-07-24T18:28:51.953Z,38.50
2018-07-24T18:31:22.747Z,38.50
2018-07-24T18:33:53.707Z,38.00
2018-07-24T18:36:24.633Z,37.60
2018-07-24T18:38:55.358Z,37.40
2018-07-24T18:41:26.600Z,37.20
2018-07-24T18:44:01.058Z,37.10
2018-07-24T18:46:31.770Z,37.00
2018-07-24T18:49:02.526Z,36.60
2018-07-24T18:51:33.227Z,36.40
2018-07-24T18:54:04.535Z,36.10
2018-07-24T18:56:35.429Z,34.80
2018-07-24T18:59:06.362Z,34.30
2018-07-24T19:01:37.258Z,34.00
2018-07-24T19:06:38.606Z,32.70
2018-07-24T19:09:10.646Z,32.40
2018-07-24T19:11:42.858Z,32.00
2018-07-24T19:14:13.425Z,31.60
2018-07-24T19:16:44.187Z,31.30
2018-07-24T19:19:15.114Z,30.90
2018-07-24T19:21:45.841Z,30.50
2018-07-24T19:24:16.909Z,30.10
2018-07-24T19:26:47.634Z,29.90
2018-07-24T19:29:18.370Z,29.60
2018-07-24T19:31:48.923Z,29.40
2018-07-24T19:34:19.914Z,29.30
2018-07-24T19:36:50.670Z,29.00
2018-07-24T19:39:21.245Z,28.90
2018-07-24T19:41:52.279Z,28.70
2018-07-24T19:44:22.833Z,28.40
2018-07-24T19:46:53.531Z,28.30
2018-07-24T19:49:24.071Z,28.20
2018-07-24T19:51:55.232Z,28.00
2018-07-24T19:54:25.765Z,27.90
2018-07-24T19:56:56.386Z,27.80
2018-07-24T19:59:27.018Z,27.70
2018-07-24T20:01:57.923Z,27.70
2018-07-24T20:04:28.497Z,27.70
2018-07-24T20:06:59.370Z,27.60
2018-07-24T20:09:30.367Z,27.50
2018-07-24T20:12:01.091Z,27.40
2018-07-24T20:14:31.742Z,27.30
2018-07-24T20:17:03.137Z,27.30
2018-07-24T20:19:33.698Z,27.20
2018-07-24T20:22:04.289Z,27.10
2018-07-24T20:24:34.882Z,27.00
2018-07-24T20:27:05.754Z,26.90
2018-07-24T20:29:36.369Z,26.90
2018-07-24T20:32:06.982Z,26.80
2018-07-24T20:34:37.938Z,26.70
2018-07-24T20:37:08.670Z,26.60
2018-07-24T20:39:39.220Z,26.60
2018-07-24T20:42:10.156Z,26.60
2018-07-24T20:44:40.754Z,26.50
2018-07-24T20:47:11.409Z,26.40
2018-07-24T20:49:41.970Z,26.30
2018-07-24T20:52:12.973Z,26.30
2018-07-24T20:54:44.006Z,26.20
2018-07-24T20:57:14.734Z,26.10
2018-07-24T20:59:45.312Z,26.00
2018-07-24T21:02:16.041Z,25.90
2018-07-24T21:04:46.638Z,25.90
2018-07-24T21:07:17.717Z,25.90
2018-07-24T21:09:48.651Z,25.80
2018-07-24T21:12:19.578Z,25.70
2018-07-24T21:14:50.212Z,25.60
2018-07-24T21:17:20.794Z,25.50
2018-07-24T21:19:51.413Z,25.50
2018-07-24T21:22:22.681Z,25.40
2018-07-24T21:24:53.372Z,25.40
2018-07-24T21:27:24.005Z,25.40
2018-07-24T21:29:54.573Z,25.30
2018-07-24T21:32:25.290Z,25.30
2018-07-24T21:34:56.167Z,25.20
2018-07-24T21:37:27.395Z,25.20
2018-07-24T21:39:57.945Z,25.20
2018-07-24T21:42:29.169Z,25.20
2018-07-24T21:45:00.170Z,25.10
2018-07-24T21:47:30.884Z,25.10
2018-07-24T21:50:01.415Z,25.10
2018-07-24T21:52:32.318Z,25.10
2018-07-24T21:55:02.857Z,25.00
2018-07-24T21:57:33.762Z,24.90
2018-07-24T22:00:04.430Z,24.80
2018-07-24T22:02:35.049Z,24.70
2018-07-24T22:05:06.014Z,24.70
2018-07-24T22:07:37.322Z,24.70
2018-07-24T22:10:12.821Z,24.70
2018-07-24T22:12:43.956Z,24.60
2018-07-24T22:15:20.690Z,24.50
2018-07-24T22:17:51.544Z,24.40
2018-07-24T22:20:22.442Z,24.40
2018-07-24T22:22:53.345Z,24.20
2018-07-24T22:25:24.349Z,24.30
2018-07-24T22:27:55.193Z,24.20
2018-07-24T22:30:25.985Z,24.20
2018-07-24T22:32:56.857Z,24.10
2018-07-24T22:35:27.433Z,24.00
2018-07-24T22:37:58.746Z,24.00
2018-07-24T22:40:29.309Z,23.90
2018-07-24T22:42:59.902Z,23.80
2018-07-24T22:45:30.521Z,23.80
2018-07-24T22:48:01.575Z,23.70
2018-07-24T22:50:32.268Z,23.70
2018-07-24T22:53:03.078Z,23.70
2018-07-24T22:55:34.028Z,23.60
2018-07-24T22:58:05.028Z,23.60
2018-07-24T23:00:35.564Z,23.60
2018-07-24T23:03:06.380Z,23.60
2018-07-24T23:05:37.219Z,23.70
2018-07-24T23:08:08.357Z,23.70
2018-07-24T23:10:39.021Z,23.60
2018-07-24T23:15:39.606Z,23.60
2018-07-24T23:18:10.169Z,23.50
2018-07-24T23:20:40.729Z,23.40
2018-07-24T23:23:12.398Z,23.40
2018-07-24T23:25:43.135Z,23.30
2018-07-24T23:28:14.019Z,23.10
2018-07-24T23:30:44.569Z,23.10
2018-07-24T23:33:15.263Z,23.10
2018-07-24T23:35:45.790Z,23.00
2018-07-24T23:38:16.790Z,22.90
2018-07-24T23:40:47.334Z,22.90
2018-07-24T23:43:18.208Z,22.80
2018-07-24T23:45:48.772Z,22.80
2018-07-24T23:50:50.310Z,22.60
2018-07-24T23:53:21.131Z,22.60
2018-07-24T23:55:53.260Z,22.60
2018-07-24T23:58:26.862Z,22.50
